createdAt,value
2023-02-22T00:01:34.046Z,81.57
2023-02-22T00:04:02.096Z,81.95
2023-02-22T00:06:29.438Z,81.92
2023-02-22T00:08:55.823Z,82.30
2023-02-22T00:11:22.206Z,82.31
2023-02-22T00:13:50.488Z,83.12
2023-02-22T00:16:23.956Z,83.16
2023-02-22T00:18:50.868Z,83.04
2023-02-22T00:21:18.324Z,82.53
2023-02-22T00:23:46.904Z,82.80
2023-02-22T00:26:18.272Z,82.83
2023-02-22T00:28:49.968Z,83.11
2023-02-22T00:31:16.975Z,83.41
2023-02-22T00:33:44.034Z,83.48
2023-02-22T00:36:12.822Z,83.78
2023-02-22T00:38:41.783Z,83.84
2023-02-22T00:41:08.833Z,83.56
2023-02-22T00:43:35.381Z,83.27
2023-02-22T00:46:01.858Z,83.01
2023-02-22T00:48:28.540Z,83.57
2023-02-22T00:50:55.239Z,82.98
2023-02-22T00:53:23.435Z,82.85
2023-02-22T00:55:50.409Z,82.87
2023-02-22T00:58:16.836Z,82.89
2023-02-22T01:00:43.469Z,83.15
2023-02-22T01:03:13.128Z,83.27
2023-02-22T01:05:39.640Z,83.28
2023-02-22T01:08:08.774Z,83.69
2023-02-22T01:10:36.097Z,83.59
2023-02-22T01:13:08.430Z,83.56
2023-02-22T01:15:36.696Z,83.26
2023-02-22T01:18:05.096Z,83.55
2023-02-22T01:20:32.782Z,83.76
2023-02-22T01:23:03.464Z,84.14
2023-02-22T01:25:31.786Z,84.14
2023-02-22T01:28:00.817Z,83.52
2023-02-22T01:30:30.363Z,83.68
2023-02-22T01:32:57.973Z,83.76
2023-02-22T01:35:28.076Z,83.59
2023-02-22T01:37:55.365Z,83.75
2023-02-22T01:40:34.901Z,83.51
2023-02-22T01:43:05.030Z,83.18
2023-02-22T01:45:32.848Z,83.49
2023-02-22T01:48:18.079Z,84.00
2023-02-22T01:50:52.628Z,83.92
2023-02-22T01:53:21.606Z,84.21
2023-02-22T01:55:49.087Z,83.57
2023-02-22T01:58:18.961Z,84.20
2023-02-22T02:00:45.611Z,84.26
2023-02-22T02:03:19.191Z,83.67
2023-02-22T02:12:35.809Z,83.87
2023-02-22T02:15:32.685Z,83.78
2023-02-22T02:18:02.075Z,84.30
2023-02-22T02:20:50.402Z,84.27
2023-02-22T02:23:44.808Z,84.15
2023-02-22T02:26:49.106Z,84.75
2023-02-22T02:29:53.195Z,84.46
2023-02-22T02:32:25.520Z,84.44
2023-02-22T02:35:00.471Z,84.79
2023-02-22T02:37:36.951Z,85.02
2023-02-22T02:40:11.735Z,84.92
2023-02-22T02:42:44.419Z,84.54
2023-02-22T02:45:21.832Z,84.66
2023-02-22T02:47:58.537Z,84.78
2023-02-22T02:58:08.193Z,84.80
2023-02-22T03:00:39.610Z,84.50
2023-02-22T03:03:37.219Z,84.85
2023-02-22T03:06:21.520Z,84.59
2023-02-22T03:09:12.801Z,84.93
2023-02-22T03:12:19.170Z,84.84
2023-02-22T03:18:45.113Z,84.86
2023-02-22T03:21:17.570Z,85.18
2023-02-22T03:23:51.128Z,85.18
2023-02-22T03:26:24.362Z,85.17
2023-02-22T03:28:55.841Z,85.14
2023-02-22T03:31:29.829Z,84.63
2023-02-22T03:34:22.387Z,84.82
2023-02-22T03:37:14.549Z,84.81
2023-02-22T03:39:43.346Z,84.82
2023-02-22T03:42:16.322Z,84.54
2023-02-22T03:44:45.814Z,84.46
2023-02-22T03:47:18.318Z,84.96
2023-02-22T03:49:59.788Z,84.82
2023-02-22T03:52:26.289Z,83.78
2023-02-22T03:54:55.996Z,84.40
2023-02-22T03:57:29.358Z,83.85
2023-02-22T03:59:55.981Z,84.34
2023-02-22T04:02:23.695Z,84.06
2023-02-22T04:04:50.093Z,83.74
2023-02-22T04:07:17.449Z,82.97
2023-02-22T04:12:40.674Z,83.60
2023-02-22T04:15:08.561Z,83.54
2023-02-22T04:17:35.079Z,84.00
2023-02-22T04:20:02.317Z,83.94
2023-02-22T04:22:28.727Z,83.64
2023-02-22T04:24:55.102Z,83.57
2023-02-22T04:27:21.524Z,83.05
2023-02-22T04:29:48.041Z,82.78
2023-02-22T04:32:16.882Z,82.77
2023-02-22T04:34:43.317Z,82.14
2023-02-22T04:37:10.395Z,81.37
2023-02-22T04:39:36.840Z,81.35
2023-02-22T04:42:03.502Z,81.48
2023-02-22T04:44:29.962Z,82.25
2023-02-22T04:46:57.423Z,81.92
2023-02-22T04:49:24.629Z,81.02
2023-02-22T04:51:55.607Z,81.96
2023-02-22T04:54:22.117Z,81.64
2023-02-22T04:56:48.563Z,81.38
2023-02-22T04:59:15.404Z,81.21
2023-02-22T05:01:42.970Z,81.29
2023-02-22T05:04:09.394Z,79.92
2023-02-22T05:06:38.855Z,81.23
2023-02-22T05:09:08.318Z,81.68
2023-02-22T05:11:38.121Z,81.56
2023-02-22T05:14:04.562Z,81.67
2023-02-22T05:16:31.127Z,80.70
2023-02-22T05:18:57.605Z,80.96
2023-02-22T05:21:24.092Z,81.17
2023-02-22T05:23:50.514Z,80.59
2023-02-22T05:26:16.901Z,80.50
2023-02-22T05:28:43.392Z,80.34
2023-02-22T05:31:09.903Z,80.66
2023-02-22T05:33:36.595Z,81.38
2023-02-22T05:36:03.100Z,80.63
2023-02-22T05:38:29.783Z,81.88
2023-02-22T05:40:56.938Z,80.88
2023-02-22T05:43:23.373Z,79.79
2023-02-22T05:45:49.815Z,80.19
2023-02-22T05:48:16.296Z,80.08
2023-02-22T05:50:43.910Z,80.57
2023-02-22T05:53:10.374Z,79.38
2023-02-22T05:55:36.815Z,79.86
2023-02-22T05:58:05.794Z,80.04
2023-02-22T06:00:32.793Z,80.33
2023-02-22T06:03:10.444Z,79.71
2023-02-22T06:05:37.476Z,79.79
2023-02-22T06:08:06.094Z,79.81
2023-02-22T06:10:33.268Z,80.37
2023-02-22T06:13:01.601Z,79.98
2023-02-22T06:15:28.983Z,79.90
2023-02-22T06:17:56.552Z,80.04
2023-02-22T06:20:24.911Z,80.20
2023-02-22T06:22:52.976Z,79.73
2023-02-22T06:25:22.289Z,80.22
2023-02-22T06:27:48.689Z,79.66
2023-02-22T06:30:17.577Z,79.47
2023-02-22T06:32:44.118Z,80.15
2023-02-22T06:35:10.577Z,79.91
2023-02-22T06:37:38.559Z,79.63
2023-02-22T06:40:05.946Z,79.79
2023-02-22T06:42:32.631Z,80.13
2023-02-22T06:44:58.987Z,80.96
2023-02-22T06:47:25.326Z,80.84
2023-02-22T06:49:56.610Z,81.51
2023-02-22T06:52:23.605Z,81.46
2023-02-22T06:54:50.702Z,81.40
2023-02-22T06:57:17.931Z,80.92
2023-02-22T06:59:44.770Z,81.12
2023-02-22T07:02:12.204Z,80.57
2023-02-22T07:04:39.649Z,80.57
2023-02-22T07:07:07.503Z,80.49
2023-02-22T07:09:34.053Z,79.95
2023-02-22T07:12:00.391Z,79.80
2023-02-22T07:14:27.226Z,79.72
2023-02-22T07:16:53.554Z,80.00
2023-02-22T07:19:20.703Z,79.64
2023-02-22T07:21:47.955Z,79.92
2023-02-22T07:24:14.328Z,80.26
2023-02-22T07:26:42.401Z,80.11
2023-02-22T07:29:08.772Z,79.89
2023-02-22T07:31:36.500Z,80.41
2023-02-22T07:34:02.984Z,80.48
2023-02-22T07:36:29.450Z,79.57
2023-02-22T07:38:55.977Z,80.11
2023-02-22T07:41:23.017Z,80.25
2023-02-22T07:43:49.454Z,79.96
2023-02-22T07:46:15.778Z,80.46
2023-02-22T07:48:42.181Z,79.64
2023-02-22T07:51:09.813Z,80.22
2023-02-22T07:53:36.532Z,79.63
2023-02-22T07:56:05.683Z,79.87
2023-02-22T07:58:33.161Z,79.46
2023-02-22T08:01:01.951Z,79.07
2023-02-22T08:03:36.316Z,78.76
2023-02-22T08:06:04.264Z,79.01
2023-02-22T08:08:30.733Z,78.80
2023-02-22T08:10:57.190Z,79.01
2023-02-22T08:13:24.449Z,79.00
2023-02-22T08:15:53.523Z,79.67
2023-02-22T08:18:21.202Z,79.49
2023-02-22T08:20:49.249Z,79.75
2023-02-22T08:23:16.723Z,79.63
2023-02-22T08:25:43.072Z,79.61
2023-02-22T08:28:12.041Z,80.01
2023-02-22T08:30:40.562Z,79.88
2023-02-22T08:33:07.413Z,79.56
2023-02-22T08:35:34.197Z,80.03
2023-02-22T08:38:03.312Z,80.23
2023-02-22T08:40:32.367Z,79.97
2023-02-22T08:42:59.260Z,80.15
2023-02-22T08:45:25.647Z,79.93
2023-02-22T08:47:51.998Z,80.08
2023-02-22T08:50:27.737Z,79.27
2023-02-22T08:52:56.363Z,79.21
2023-02-22T08:55:24.340Z,79.10
2023-02-22T08:57:50.762Z,79.65
2023-02-22T09:00:19.525Z,79.70
2023-02-22T09:02:46.028Z,79.67
2023-02-22T09:05:12.480Z,79.22
2023-02-22T09:07:42.353Z,79.59
2023-02-22T09:10:15.345Z,78.96
2023-02-22T09:12:42.227Z,78.97
2023-02-22T09:15:09.735Z,78.37
2023-02-22T09:17:38.961Z,78.90
2023-02-22T09:20:07.095Z,78.71
2023-02-22T09:22:33.530Z,79.06
2023-02-22T09:25:02.585Z,78.13
2023-02-22T09:27:34.289Z,77.35
2023-02-22T09:30:00.717Z,77.29
2023-02-22T09:32:28.055Z,77.96
2023-02-22T09:34:55.601Z,77.65
2023-02-22T09:37:22.519Z,77.35
2023-02-22T09:39:49.105Z,77.42
2023-02-22T09:42:29.223Z,76.71
2023-02-22T09:45:12.746Z,76.45
2023-02-22T09:47:46.536Z,75.49
2023-02-22T09:50:25.004Z,75.43
2023-02-22T09:53:00.108Z,75.38
2023-02-22T09:55:41.124Z,75.17
2023-02-22T09:58:26.396Z,75.16
2023-02-22T10:01:00.972Z,75.15
2023-02-22T10:03:50.727Z,74.32
2023-02-22T10:06:23.250Z,74.40
2023-02-22T10:08:56.306Z,74.06
2023-02-22T10:11:45.319Z,73.12
2023-02-22T10:14:47.368Z,71.72
2023-02-22T10:17:22.844Z,72.30
2023-02-22T10:20:07.353Z,71.42
2023-02-22T10:22:59.143Z,71.04
2023-02-22T10:25:28.473Z,70.66
2023-02-22T10:28:06.423Z,69.25
2023-02-22T10:30:38.199Z,68.23
2023-02-22T10:33:17.084Z,68.46
2023-02-22T10:35:46.987Z,68.79
2023-02-22T10:38:24.265Z,67.99
2023-02-22T10:40:56.113Z,67.72
2023-02-22T10:43:23.492Z,66.57
2023-02-22T10:45:55.707Z,62.31
2023-02-22T10:48:26.225Z,59.78
2023-02-22T10:50:57.225Z,56.07
2023-02-22T10:53:23.584Z,55.82
2023-02-22T10:56:12.649Z,54.80
2023-02-22T10:59:00.491Z,53.86
2023-02-22T11:01:32.971Z,52.25
2023-02-22T11:04:18.437Z,52.24
2023-02-22T11:06:48.484Z,51.35
2023-02-22T11:09:17.904Z,49.51
2023-02-22T11:11:46.719Z,50.77
2023-02-22T11:14:26.443Z,50.16
2023-02-22T11:16:56.745Z,49.45
2023-02-22T11:19:28.000Z,49.14
2023-02-22T11:22:25.059Z,49.24
2023-02-22T11:24:56.043Z,48.74
2023-02-22T11:27:28.550Z,49.44
2023-02-22T11:30:21.184Z,48.79
2023-02-22T11:32:53.354Z,49.08
2023-02-22T11:35:35.633Z,48.09
2023-02-22T11:38:29.776Z,48.19
2023-02-22T11:41:22.915Z,47.50
2023-02-22T11:43:51.935Z,49.39
2023-02-22T11:46:22.279Z,49.02
2023-02-22T11:49:10.949Z,49.60
2023-02-22T11:52:03.180Z,49.41
2023-02-22T11:54:57.817Z,50.00
2023-02-22T11:58:00.269Z,50.18
2023-02-22T12:00:53.873Z,48.63
2023-02-22T12:03:51.606Z,48.56
2023-02-22T12:06:51.614Z,49.60
2023-02-22T12:09:40.683Z,49.57
2023-02-22T12:12:17.369Z,50.46
2023-02-22T12:15:15.603Z,50.80
2023-02-22T12:18:00.803Z,51.22
2023-02-22T12:20:37.556Z,50.29
2023-02-22T12:23:14.230Z,51.12
2023-02-22T12:25:51.905Z,48.23
2023-02-22T12:28:25.112Z,46.08
2023-02-22T12:31:03.517Z,46.40
2023-02-22T12:33:41.439Z,46.51
2023-02-22T12:36:14.842Z,45.85
2023-02-22T12:38:46.761Z,45.58
2023-02-22T12:41:22.457Z,46.59
2023-02-22T12:44:12.667Z,44.77
2023-02-22T12:46:46.566Z,46.64
2023-02-22T12:49:36.472Z,47.49
2023-02-22T12:52:41.477Z,46.84
2023-02-22T12:55:23.126Z,46.66
2023-02-22T12:58:14.813Z,47.98
2023-02-22T13:00:50.806Z,46.71
2023-02-22T13:03:35.616Z,44.74
2023-02-22T13:06:08.209Z,44.70
2023-02-22T13:08:45.744Z,45.81
2023-02-22T13:11:27.933Z,47.21
2023-02-22T13:14:24.026Z,46.02
2023-02-22T13:17:10.415Z,47.37
2023-02-22T13:19:46.187Z,47.39
2023-02-22T13:22:32.801Z,48.52
2023-02-22T13:25:40.538Z,49.50
2023-02-22T13:28:35.783Z,50.26
2023-02-22T13:31:30.040Z,50.59
2023-02-22T13:34:40.198Z,51.15
2023-02-22T13:48:35.322Z,49.64
2023-02-22T13:56:06.167Z,50.05
2023-02-22T14:13:55.715Z,53.33
2023-02-22T14:16:27.621Z,53.53
2023-02-22T14:19:02.315Z,53.25
2023-02-22T14:21:28.965Z,53.26
2023-02-22T14:24:05.628Z,54.24
2023-02-22T14:26:40.463Z,54.10
2023-02-22T14:29:31.519Z,55.07
2023-02-22T14:32:15.531Z,54.80
2023-02-22T14:34:48.983Z,54.99
2023-02-22T14:37:24.823Z,55.48
2023-02-22T14:39:58.409Z,57.00
2023-02-22T14:42:27.943Z,56.18
2023-02-22T14:45:00.406Z,55.81
2023-02-22T14:47:45.891Z,55.64
2023-02-22T14:50:44.840Z,56.55
2023-02-22T14:53:23.276Z,57.14
2023-02-22T14:55:58.733Z,57.07
2023-02-22T14:58:57.799Z,57.79
2023-02-22T15:01:44.292Z,57.52
2023-02-22T15:04:21.855Z,57.71
2023-02-22T15:06:49.596Z,57.99
2023-02-22T15:09:28.950Z,57.96
2023-02-22T15:12:05.198Z,57.45
2023-02-22T15:14:38.192Z,57.14
2023-02-22T15:17:12.419Z,58.12
2023-02-22T15:19:41.235Z,58.26
2023-02-22T15:22:25.628Z,58.16
2023-02-22T15:28:46.755Z,58.48
2023-02-22T15:31:21.236Z,58.11
2023-02-22T15:33:53.373Z,58.48
2023-02-22T15:36:21.354Z,58.75
2023-02-22T15:38:53.349Z,58.61
2023-02-22T15:41:32.416Z,58.47
2023-02-22T15:44:47.047Z,59.09
2023-02-22T15:47:23.397Z,59.63
2023-02-22T15:53:32.426Z,61.23
2023-02-22T15:56:04.012Z,61.69
2023-02-22T15:58:37.961Z,61.25
2023-02-22T16:01:19.107Z,61.11
2023-02-22T16:03:59.008Z,61.40
2023-02-22T16:06:44.149Z,61.09
2023-02-22T16:09:24.879Z,62.10
2023-02-22T16:12:09.305Z,62.87
2023-02-22T16:14:35.725Z,62.39
2023-02-22T16:17:35.259Z,61.75
2023-02-22T16:20:24.806Z,62.01
2023-02-22T16:22:51.496Z,62.25
2023-02-22T16:25:17.874Z,63.28
2023-02-22T16:28:54.343Z,62.51
2023-02-22T16:31:25.105Z,63.84
2023-02-22T16:33:55.131Z,63.49
2023-02-22T16:36:37.204Z,63.84
2023-02-22T16:39:12.744Z,64.71
2023-02-22T16:41:39.343Z,64.62
2023-02-22T16:44:07.943Z,64.74
2023-02-22T16:46:35.112Z,64.62
2023-02-22T16:49:05.086Z,65.25
2023-02-22T16:51:55.285Z,66.05
2023-02-22T16:54:36.797Z,66.57
2023-02-22T16:57:34.737Z,65.43
2023-02-22T17:01:11.041Z,66.10
2023-02-22T17:04:08.529Z,66.44
2023-02-22T17:06:37.241Z,66.55
2023-02-22T17:09:08.981Z,66.04
2023-02-22T17:12:23.556Z,66.39
2023-02-22T17:14:56.565Z,66.02
2023-02-22T17:17:23.315Z,66.67
2023-02-22T17:19:57.553Z,67.49
2023-02-22T17:22:24.188Z,67.97
2023-02-22T17:24:50.724Z,68.01
2023-02-22T17:31:00.805Z,68.31
2023-02-22T17:33:33.384Z,69.82
2023-02-22T17:38:56.749Z,69.88
2023-02-22T17:41:23.364Z,71.12
2023-02-22T17:43:50.664Z,72.64
2023-02-22T17:46:19.758Z,73.35
2023-02-22T17:48:48.269Z,74.68
2023-02-22T17:51:14.676Z,75.88
2023-02-22T17:53:41.114Z,76.59
2023-02-22T17:56:10.285Z,78.85
2023-02-22T17:58:37.224Z,78.63
2023-02-22T18:01:04.208Z,79.76
2023-02-22T18:03:33.655Z,80.86
2023-02-22T18:06:01.514Z,82.00
2023-02-22T18:08:30.997Z,82.33
2023-02-22T18:10:57.522Z,82.69
2023-02-22T18:13:26.987Z,82.33
2023-02-22T18:15:59.852Z,82.23
2023-02-22T18:18:26.760Z,82.54
2023-02-22T18:20:59.357Z,82.75
2023-02-22T18:23:27.862Z,82.49
2023-02-22T18:26:09.775Z,82.61
2023-02-22T18:28:38.055Z,83.88
2023-02-22T18:31:15.722Z,83.10
2023-02-22T18:33:44.203Z,82.64
2023-02-22T18:36:14.414Z,82.76
2023-02-22T18:38:46.117Z,82.82
2023-02-22T18:41:15.293Z,82.32
2023-02-22T18:43:42.636Z,82.96
2023-02-22T18:46:18.820Z,82.81
2023-02-22T18:48:47.174Z,82.55
2023-02-22T18:51:18.239Z,82.33
2023-02-22T18:53:47.544Z,82.78
2023-02-22T18:56:17.854Z,82.60
2023-02-22T18:58:44.546Z,82.57
2023-02-22T19:01:18.583Z,82.44
2023-02-22T19:03:47.103Z,82.32
2023-02-22T19:06:16.776Z,82.22
2023-02-22T19:08:44.897Z,81.67
2023-02-22T19:11:17.794Z,81.58
2023-02-22T19:13:48.801Z,82.40
2023-02-22T19:16:19.822Z,83.25
2023-02-22T19:18:48.551Z,83.92
2023-02-22T19:21:15.998Z,84.90
2023-02-22T19:23:45.621Z,84.81
2023-02-22T19:26:13.960Z,86.77
2023-02-22T19:28:40.354Z,87.14
2023-02-22T19:31:18.577Z,86.72
2023-02-22T19:33:47.646Z,87.02
2023-02-22T19:36:17.006Z,87.14
2023-02-22T19:38:43.949Z,87.30
2023-02-22T19:41:26.727Z,87.50
2023-02-22T19:43:53.800Z,87.23
2023-02-22T19:46:21.310Z,87.19
2023-02-22T19:48:48.930Z,87.08
2023-02-22T19:51:17.921Z,87.38
2023-02-22T19:53:45.092Z,87.71
2023-02-22T19:56:16.171Z,87.41
2023-02-22T19:58:44.578Z,87.19
2023-02-22T20:01:16.393Z,87.41
2023-02-22T20:03:43.814Z,87.22
2023-02-22T20:06:11.479Z,87.35
2023-02-22T20:08:42.175Z,87.64
2023-02-22T20:11:10.465Z,87.77
2023-02-22T20:16:18.727Z,87.68
2023-02-22T20:18:46.562Z,87.76
2023-02-22T20:21:21.717Z,87.69
2023-02-22T20:23:48.354Z,87.44
2023-02-22T20:26:22.266Z,87.76
2023-02-22T20:28:49.524Z,87.42
2023-02-22T20:31:16.992Z,87.18
2023-02-22T20:33:45.668Z,88.08
2023-02-22T20:36:19.443Z,87.87
2023-02-22T20:38:48.878Z,87.36
2023-02-22T20:41:21.632Z,87.87
2023-02-22T20:43:52.565Z,86.87
2023-02-22T20:46:19.288Z,87.78
2023-02-22T20:48:45.965Z,86.47
2023-02-22T20:51:15.955Z,87.22
2023-02-22T20:53:44.819Z,86.91
2023-02-22T20:56:16.696Z,87.27
2023-02-22T20:58:43.702Z,86.84
2023-02-22T21:01:12.591Z,87.16
2023-02-22T21:03:39.599Z,86.75
2023-02-22T21:06:06.669Z,87.18
2023-02-22T21:08:33.223Z,87.13
2023-02-22T21:11:01.946Z,87.02
2023-02-22T21:13:28.402Z,86.83
2023-02-22T21:15:54.778Z,86.79
2023-02-22T21:18:23.346Z,87.05
2023-02-22T21:20:51.056Z,86.92
2023-02-22T21:23:19.943Z,87.57
2023-02-22T21:25:51.536Z,87.63
2023-02-22T21:28:17.984Z,87.89
2023-02-22T21:30:45.666Z,87.91
2023-02-22T21:33:13.055Z,88.03
2023-02-22T21:35:42.202Z,88.13
2023-02-22T21:38:14.507Z,88.45
2023-02-22T21:40:42.669Z,88.79
2023-02-22T21:43:19.195Z,88.56
2023-02-22T21:45:58.490Z,89.25
2023-02-22T21:48:26.639Z,88.72
2023-02-22T21:50:54.072Z,89.08
2023-02-22T21:53:20.590Z,88.67
2023-02-22T21:55:47.062Z,88.64
2023-02-22T21:58:13.451Z,88.85
2023-02-22T22:00:42.740Z,89.49
2023-02-22T22:03:20.394Z,89.64
2023-02-22T22:05:49.425Z,89.35
2023-02-22T22:08:22.218Z,89.01
2023-02-22T22:10:55.408Z,88.66
2023-02-22T22:13:25.276Z,88.39
2023-02-22T22:15:51.941Z,88.24
2023-02-22T22:18:21.808Z,88.47
2023-02-22T22:20:52.906Z,88.75
2023-02-22T22:23:24.608Z,88.78
2023-02-22T22:25:52.766Z,89.05
2023-02-22T22:28:25.206Z,89.48
2023-02-22T22:30:51.722Z,89.17
2023-02-22T22:33:18.188Z,89.31
2023-02-22T22:35:44.893Z,89.22
2023-02-22T22:38:11.514Z,88.86
2023-02-22T22:40:38.922Z,88.97
2023-02-22T22:43:05.978Z,89.07
2023-02-22T22:45:32.815Z,89.24
2023-02-22T22:47:59.184Z,89.33
2023-02-22T22:50:26.464Z,89.11
2023-02-22T22:52:55.532Z,89.48
2023-02-22T22:55:24.196Z,89.02
2023-02-22T22:57:56.155Z,89.10
2023-02-22T23:00:37.336Z,89.38
2023-02-22T23:03:05.578Z,89.56
2023-02-22T23:05:37.295Z,89.66
2023-02-22T23:08:04.991Z,89.31
2023-02-22T23:10:33.045Z,89.64
2023-02-22T23:12:59.502Z,89.43
2023-02-22T23:15:26.141Z,89.53
2023-02-22T23:17:56.175Z,89.54
2023-02-22T23:20:26.126Z,89.68
2023-02-22T23:22:54.430Z,89.46
2023-02-22T23:25:21.631Z,89.33
2023-02-22T23:27:49.255Z,89.49
2023-02-22T23:30:18.513Z,89.19
2023-02-22T23:32:49.324Z,89.26
2023-02-22T23:35:18.866Z,89.37
2023-02-22T23:37:50.044Z,89.33
2023-02-22T23:40:16.848Z,89.45
2023-02-22T23:42:49.907Z,89.38
2023-02-22T23:45:27.298Z,89.59
2023-02-22T23:47:56.100Z,89.66
2023-02-22T23:50:27.113Z,89.73
2023-02-22T23:52:59.113Z,89.66
2023-02-22T23:55:31.573Z,90.06
2023-02-22T23:57:59.663Z,90.13
